sensor_id;sensor_type;location;lat;lon;timestamp;P1;durP1;ratioP1;P2;durP2;ratioP2
65187;SDS011;51775;51.148;6.950;2022-07-10T00:00:45;1.23;;;0.68;;
65187;SDS011;51775;51.148;6.950;2022-07-10T00:03:10;1.25;;;0.68;;
65187;SDS011;51775;51.148;6.950;2022-07-10T00:05:35;2.13;;;0.60;;
65187;SDS011;51775;51.148;6.950;2022-07-10T00:08:01;0.95;;;0.50;;
65187;SDS011;51775;51.148;6.950;2022-07-10T00:10:26;1.85;;;0.50;;
65187;SDS011;51775;51.148;6.950;2022-07-10T00:12:52;0.98;;;0.63;;
65187;SDS011;51775;51.148;6.950;2022-07-10T00:15:17;0.95;;;0.50;;
65187;SDS011;51775;51.148;6.950;2022-07-10T00:17:44;0.88;;;0.52;;
65187;SDS011;51775;51.148;6.950;2022-07-10T00:20:10;0.60;;;0.40;;
65187;SDS011;51775;51.148;6.950;2022-07-10T00:22:37;0.88;;;0.57;;
65187;SDS011;51775;51.148;6.950;2022-07-10T00:25:06;0.90;;;0.50;;
65187;SDS011;51775;51.148;6.950;2022-07-10T00:27:33;0.60;;;0.40;;
65187;SDS011;51775;51.148;6.950;2022-07-10T00:29:58;1.02;;;0.52;;
65187;SDS011;51775;51.148;6.950;2022-07-10T00:32:24;1.95;;;0.55;;
65187;SDS011;51775;51.148;6.950;2022-07-10T00:34:50;0.50;;;0.40;;
65187;SDS011;51775;51.148;6.950;2022-07-10T00:37:16;1.27;;;0.50;;
65187;SDS011;51775;51.148;6.950;2022-07-10T00:39:41;1.33;;;0.50;;
65187;SDS011;51775;51.148;6.950;2022-07-10T00:42:11;1.67;;;0.55;;
65187;SDS011;51775;51.148;6.950;2022-07-10T00:44:38;0.75;;;0.50;;
65187;SDS011;51775;51.148;6.950;2022-07-10T00:47:06;0.57;;;0.50;;
65187;SDS011;51775;51.148;6.950;2022-07-10T00:49:33;0.57;;;0.40;;
65187;SDS011;51775;51.148;6.950;2022-07-10T00:52:00;0.68;;;0.50;;
65187;SDS011;51775;51.148;6.950;2022-07-10T00:54:31;3.05;;;0.50;;
65187;SDS011;51775;51.148;6.950;2022-07-10T00:56:58;0.80;;;0.57;;
65187;SDS011;51775;51.148;6.950;2022-07-10T00:59:25;0.95;;;0.50;;
65187;SDS011;51775;51.148;6.950;2022-07-10T01:01:50;0.85;;;0.50;;
65187;SDS011;51775;51.148;6.950;2022-07-10T01:04:16;1.30;;;0.52;;
65187;SDS011;51775;51.148;6.950;2022-07-10T01:06:42;1.23;;;0.50;;
65187;SDS011;51775;51.148;6.950;2022-07-10T01:09:07;0.75;;;0.50;;
65187;SDS011;51775;51.148;6.950;2022-07-10T01:11:33;0.88;;;0.50;;
65187;SDS011;51775;51.148;6.950;2022-07-10T01:14:00;0.77;;;0.40;;
65187;SDS011;51775;51.148;6.950;2022-07-10T01:16:26;0.88;;;0.50;;
65187;SDS011;51775;51.148;6.950;2022-07-10T01:18:52;0.82;;;0.60;;
65187;SDS011;51775;51.148;6.950;2022-07-10T01:23:52;0.93;;;0.60;;
65187;SDS011;51775;51.148;6.950;2022-07-10T01:26:18;0.85;;;0.63;;
65187;SDS011;51775;51.148;6.950;2022-07-10T01:28:44;0.80;;;0.50;;
65187;SDS011;51775;51.148;6.950;2022-07-10T01:31:10;1.45;;;0.40;;
65187;SDS011;51775;51.148;6.950;2022-07-10T01:33:35;0.88;;;0.60;;
65187;SDS011;51775;51.148;6.950;2022-07-10T01:36:01;0.77;;;0.57;;
65187;SDS011;51775;51.148;6.950;2022-07-10T01:38:26;0.98;;;0.50;;
65187;SDS011;51775;51.148;6.950;2022-07-10T01:40:51;1.23;;;0.50;;
65187;SDS011;51775;51.148;6.950;2022-07-10T01:43:17;1.15;;;0.60;;
65187;SDS011;51775;51.148;6.950;2022-07-10T01:45:42;1.27;;;0.60;;
65187;SDS011;51775;51.148;6.950;2022-07-10T01:48:07;0.70;;;0.50;;
65187;SDS011;51775;51.148;6.950;2022-07-10T01:50:32;1.73;;;0.73;;
65187;SDS011;51775;51.148;6.950;2022-07-10T01:52:58;0.80;;;0.50;;
65187;SDS011;51775;51.148;6.950;2022-07-10T01:55:23;1.85;;;0.55;;
65187;SDS011;51775;51.148;6.950;2022-07-10T01:57:48;0.85;;;0.50;;
65187;SDS011;51775;51.148;6.950;2022-07-10T02:00:14;0.95;;;0.52;;
65187;SDS011;51775;51.148;6.950;2022-07-10T02:02:39;0.93;;;0.50;;
65187;SDS011;51775;51.148;6.950;2022-07-10T02:05:04;2.63;;;0.60;;
65187;SDS011;51775;51.148;6.950;2022-07-10T02:07:30;1.05;;;0.60;;
65187;SDS011;51775;51.148;6.950;2022-07-10T02:09:55;0.95;;;0.47;;
65187;SDS011;51775;51.148;6.950;2022-07-10T02:12:20;0.77;;;0.45;;
65187;SDS011;51775;51.148;6.950;2022-07-10T02:14:46;1.02;;;0.63;;
65187;SDS011;51775;51.148;6.950;2022-07-10T02:17:11;1.00;;;0.70;;
65187;SDS011;51775;51.148;6.950;2022-07-10T02:19:36;1.05;;;0.50;;
65187;SDS011;51775;51.148;6.950;2022-07-10T02:22:02;1.20;;;0.75;;
65187;SDS011;51775;51.148;6.950;2022-07-10T02:24:27;0.98;;;0.60;;
65187;SDS011;51775;51.148;6.950;2022-07-10T02:26:53;0.90;;;0.50;;
65187;SDS011;51775;51.148;6.950;2022-07-10T02:29:18;0.88;;;0.40;;
65187;SDS011;51775;51.148;6.950;2022-07-10T02:31:43;0.75;;;0.52;;
65187;SDS011;51775;51.148;6.950;2022-07-10T02:34:09;0.70;;;0.50;;
65187;SDS011;51775;51.148;6.950;2022-07-10T02:36:36;0.65;;;0.50;;
65187;SDS011;51775;51.148;6.950;2022-07-10T02:39:02;1.23;;;0.75;;
65187;SDS011;51775;51.148;6.950;2022-07-10T02:41:28;0.90;;;0.57;;
65187;SDS011;51775;51.148;6.950;2022-07-10T02:43:53;1.60;;;0.60;;
65187;SDS011;51775;51.148;6.950;2022-07-10T02:46:19;0.80;;;0.52;;
65187;SDS011;51775;51.148;6.950;2022-07-10T02:48:44;0.85;;;0.52;;
65187;SDS011;51775;51.148;6.950;2022-07-10T02:51:09;1.00;;;0.50;;
65187;SDS011;51775;51.148;6.950;2022-07-10T02:53:35;1.52;;;0.70;;
65187;SDS011;51775;51.148;6.950;2022-07-10T02:56:00;1.75;;;0.80;;
65187;SDS011;51775;51.148;6.950;2022-07-10T02:58:25;0.90;;;0.60;;
65187;SDS011;51775;51.148;6.950;2022-07-10T03:00:51;0.88;;;0.60;;
65187;SDS011;51775;51.148;6.950;2022-07-10T03:03:16;0.45;;;0.45;;
65187;SDS011;51775;51.148;6.950;2022-07-10T03:05:41;0.75;;;0.55;;
65187;SDS011;51775;51.148;6.950;2022-07-10T03:08:07;0.47;;;0.40;;
65187;SDS011;51775;51.148;6.950;2022-07-10T03:10:32;1.35;;;0.57;;
65187;SDS011;51775;51.148;6.950;2022-07-10T03:12:58;2.10;;;0.40;;
65187;SDS011;51775;51.148;6.950;2022-07-10T03:15:23;1.17;;;0.70;;
65187;SDS011;51775;51.148;6.950;2022-07-10T03:17:49;1.20;;;0.75;;
65187;SDS011;51775;51.148;6.950;2022-07-10T03:20:14;0.75;;;0.50;;
65187;SDS011;51775;51.148;6.950;2022-07-10T03:22:39;0.80;;;0.60;;
65187;SDS011;51775;51.148;6.950;2022-07-10T03:25:05;1.02;;;0.60;;
65187;SDS011;51775;51.148;6.950;2022-07-10T03:27:30;2.22;;;0.70;;
65187;SDS011;51775;51.148;6.950;2022-07-10T03:29:56;0.80;;;0.60;;
65187;SDS011;51775;51.148;6.950;2022-07-10T03:32:21;2.35;;;0.65;;
65187;SDS011;51775;51.148;6.950;2022-07-10T03:34:46;1.23;;;0.57;;
65187;SDS011;51775;51.148;6.950;2022-07-10T03:37:14;1.08;;;0.60;;
65187;SDS011;51775;51.148;6.950;2022-07-10T03:39:39;2.50;;;0.70;;
65187;SDS011;51775;51.148;6.950;2022-07-10T03:42:05;1.27;;;0.65;;
65187;SDS011;51775;51.148;6.950;2022-07-10T03:44:30;2.47;;;0.70;;
65187;SDS011;51775;51.148;6.950;2022-07-10T03:46:56;0.65;;;0.50;;
65187;SDS011;51775;51.148;6.950;2022-07-10T03:49:21;1.23;;;0.57;;
65187;SDS011;51775;51.148;6.950;2022-07-10T03:51:46;2.03;;;0.70;;
65187;SDS011;51775;51.148;6.950;2022-07-10T03:54:11;1.85;;;0.85;;
65187;SDS011;51775;51.148;6.950;2022-07-10T03:56:37;1.77;;;0.70;;
65187;SDS011;51775;51.148;6.950;2022-07-10T03:59:02;0.80;;;0.60;;
65187;SDS011;51775;51.148;6.950;2022-07-10T04:01:27;1.63;;;0.50;;
65187;SDS011;51775;51.148;6.950;2022-07-10T04:03:52;0.90;;;0.50;;
65187;SDS011;51775;51.148;6.950;2022-07-10T04:06:18;1.48;;;0.60;;
65187;SDS011;51775;51.148;6.950;2022-07-10T04:08:43;1.92;;;0.68;;
65187;SDS011;51775;51.148;6.950;2022-07-10T04:11:08;1.00;;;0.60;;
65187;SDS011;51775;51.148;6.950;2022-07-10T04:13:33;1.02;;;0.60;;
65187;SDS011;51775;51.148;6.950;2022-07-10T04:15:59;1.23;;;0.60;;
65187;SDS011;51775;51.148;6.950;2022-07-10T04:18:24;2.08;;;0.70;;
65187;SDS011;51775;51.148;6.950;2022-07-10T04:20:50;1.30;;;0.60;;
65187;SDS011;51775;51.148;6.950;2022-07-10T04:23:15;1.30;;;0.60;;
65187;SDS011;51775;51.148;6.950;2022-07-10T04:25:40;2.08;;;0.63;;
65187;SDS011;51775;51.148;6.950;2022-07-10T04:28:05;2.30;;;0.80;;
65187;SDS011;51775;51.148;6.950;2022-07-10T04:30:31;1.45;;;0.65;;
65187;SDS011;51775;51.148;6.950;2022-07-10T04:32:56;3.83;;;0.68;;
65187;SDS011;51775;51.148;6.950;2022-07-10T04:35:21;1.80;;;0.70;;
65187;SDS011;51775;51.148;6.950;2022-07-10T04:37:47;1.05;;;0.60;;
65187;SDS011;51775;51.148;6.950;2022-07-10T04:40:12;1.00;;;0.70;;
65187;SDS011;51775;51.148;6.950;2022-07-10T04:42:37;1.30;;;0.60;;
65187;SDS011;51775;51.148;6.950;2022-07-10T04:45:03;1.58;;;0.80;;
65187;SDS011;51775;51.148;6.950;2022-07-10T04:47:28;1.55;;;0.73;;
65187;SDS011;51775;51.148;6.950;2022-07-10T04:49:53;1.90;;;0.77;;
65187;SDS011;51775;51.148;6.950;2022-07-10T04:52:19;1.08;;;0.55;;
65187;SDS011;51775;51.148;6.950;2022-07-10T04:54:44;1.02;;;0.60;;
65187;SDS011;51775;51.148;6.950;2022-07-10T04:57:09;2.78;;;0.98;;
65187;SDS011;51775;51.148;6.950;2022-07-10T04:59:35;1.35;;;0.70;;
65187;SDS011;51775;51.148;6.950;2022-07-10T05:02:00;1.60;;;0.65;;
65187;SDS011;51775;51.148;6.950;2022-07-10T05:04:25;1.50;;;0.60;;
65187;SDS011;51775;51.148;6.950;2022-07-10T05:06:50;2.72;;;0.90;;
65187;SDS011;51775;51.148;6.950;2022-07-10T05:09:16;1.33;;;0.65;;
65187;SDS011;51775;51.148;6.950;2022-07-10T05:11:41;1.48;;;0.60;;
65187;SDS011;51775;51.148;6.950;2022-07-10T05:14:06;1.98;;;0.70;;
65187;SDS011;51775;51.148;6.950;2022-07-10T05:16:32;1.23;;;0.60;;
65187;SDS011;51775;51.148;6.950;2022-07-10T05:18:57;1.30;;;0.60;;
65187;SDS011;51775;51.148;6.950;2022-07-10T05:21:22;1.20;;;0.68;;
65187;SDS011;51775;51.148;6.950;2022-07-10T05:23:47;1.27;;;0.50;;
65187;SDS011;51775;51.148;6.950;2022-07-10T05:26:13;2.17;;;0.90;;
65187;SDS011;51775;51.148;6.950;2022-07-10T05:28:38;2.03;;;0.60;;
65187;SDS011;51775;51.148;6.950;2022-07-10T05:31:03;1.67;;;0.60;;
65187;SDS011;51775;51.148;6.950;2022-07-10T05:33:29;1.15;;;0.60;;
65187;SDS011;51775;51.148;6.950;2022-07-10T05:35:54;1.10;;;0.70;;
65187;SDS011;51775;51.148;6.950;2022-07-10T05:38:20;1.95;;;0.75;;
65187;SDS011;51775;51.148;6.950;2022-07-10T05:40:45;3.55;;;0.80;;
65187;SDS011;51775;51.148;6.950;2022-07-10T05:43:11;0.82;;;0.50;;
65187;SDS011;51775;51.148;6.950;2022-07-10T05:45:37;3.50;;;0.75;;
65187;SDS011;51775;51.148;6.950;2022-07-10T05:48:02;1.75;;;0.70;;
65187;SDS011;51775;51.148;6.950;2022-07-10T05:50:28;3.33;;;0.70;;
65187;SDS011;51775;51.148;6.950;2022-07-10T05:52:53;1.20;;;0.70;;
65187;SDS011;51775;51.148;6.950;2022-07-10T05:55:18;0.98;;;0.70;;
65187;SDS011;51775;51.148;6.950;2022-07-10T05:57:44;2.03;;;0.70;;
65187;SDS011;51775;51.148;6.950;2022-07-10T06:00:09;0.95;;;0.70;;
65187;SDS011;51775;51.148;6.950;2022-07-10T06:02:35;2.10;;;0.90;;
65187;SDS011;51775;51.148;6.950;2022-07-10T06:05:00;1.40;;;0.70;;
65187;SDS011;51775;51.148;6.950;2022-07-10T06:07:26;2.13;;;0.90;;
65187;SDS011;51775;51.148;6.950;2022-07-10T06:09:52;1.17;;;0.70;;
65187;SDS011;51775;51.148;6.950;2022-07-10T06:12:17;1.30;;;0.73;;
65187;SDS011;51775;51.148;6.950;2022-07-10T06:14:43;1.65;;;0.73;;
65187;SDS011;51775;51.148;6.950;2022-07-10T06:17:08;2.83;;;0.80;;
65187;SDS011;51775;51.148;6.950;2022-07-10T06:19:33;0.98;;;0.70;;
65187;SDS011;51775;51.148;6.950;2022-07-10T06:21:59;1.38;;;0.68;;
65187;SDS011;51775;51.148;6.950;2022-07-10T06:24:24;1.95;;;0.80;;
65187;SDS011;51775;51.148;6.950;2022-07-10T06:26:49;2.45;;;0.70;;
65187;SDS011;51775;51.148;6.950;2022-07-10T06:29:14;1.00;;;0.60;;
65187;SDS011;51775;51.148;6.950;2022-07-10T06:31:40;1.55;;;0.73;;
65187;SDS011;51775;51.148;6.950;2022-07-10T06:34:05;2.70;;;0.90;;
65187;SDS011;51775;51.148;6.950;2022-07-10T06:36:30;1.15;;;0.73;;
65187;SDS011;51775;51.148;6.950;2022-07-10T06:38:56;4.00;;;0.90;;
65187;SDS011;51775;51.148;6.950;2022-07-10T06:41:21;2.00;;;0.82;;
65187;SDS011;51775;51.148;6.950;2022-07-10T06:43:46;1.45;;;0.70;;
65187;SDS011;51775;51.148;6.950;2022-07-10T06:46:11;1.40;;;0.80;;
65187;SDS011;51775;51.148;6.950;2022-07-10T06:48:37;1.15;;;0.65;;
65187;SDS011;51775;51.148;6.950;2022-07-10T06:51:02;1.23;;;0.60;;
65187;SDS011;51775;51.148;6.950;2022-07-10T06:53:30;1.55;;;0.70;;
65187;SDS011;51775;51.148;6.950;2022-07-10T06:55:55;4.45;;;0.80;;
65187;SDS011;51775;51.148;6.950;2022-07-10T06:58:21;1.27;;;0.75;;
65187;SDS011;51775;51.148;6.950;2022-07-10T07:00:46;1.30;;;0.57;;
65187;SDS011;51775;51.148;6.950;2022-07-10T07:03:11;1.58;;;0.90;;
65187;SDS011;51775;51.148;6.950;2022-07-10T07:05:37;0.90;;;0.60;;
65187;SDS011;51775;51.148;6.950;2022-07-10T07:08:02;1.48;;;0.70;;
65187;SDS011;51775;51.148;6.950;2022-07-10T07:10:27;2.90;;;0.70;;
65187;SDS011;51775;51.148;6.950;2022-07-10T07:12:52;0.95;;;0.68;;
65187;SDS011;51775;51.148;6.950;2022-07-10T07:15:18;1.73;;;0.80;;
65187;SDS011;51775;51.148;6.950;2022-07-10T07:17:43;2.55;;;0.90;;
65187;SDS011;51775;51.148;6.950;2022-07-10T07:20:09;2.35;;;0.80;;
65187;SDS011;51775;51.148;6.950;2022-07-10T07:22:34;1.88;;;0.77;;
65187;SDS011;51775;51.148;6.950;2022-07-10T07:25:00;1.15;;;0.70;;
65187;SDS011;51775;51.148;6.950;2022-07-10T07:27:25;0.50;;;0.50;;
65187;SDS011;51775;51.148;6.950;2022-07-10T07:29:51;1.23;;;0.70;;
65187;SDS011;51775;51.148;6.950;2022-07-10T07:32:16;0.93;;;0.70;;
65187;SDS011;51775;51.148;6.950;2022-07-10T07:34:41;1.55;;;0.70;;
65187;SDS011;51775;51.148;6.950;2022-07-10T07:37:06;1.08;;;0.60;;
65187;SDS011;51775;51.148;6.950;2022-07-10T07:39:32;0.65;;;0.55;;
65187;SDS011;51775;51.148;6.950;2022-07-10T07:41:57;1.60;;;0.80;;
65187;SDS011;51775;51.148;6.950;2022-07-10T07:44:22;1.38;;;0.70;;
65187;SDS011;51775;51.148;6.950;2022-07-10T07:46:48;2.25;;;0.70;;
65187;SDS011;51775;51.148;6.950;2022-07-10T07:49:13;1.98;;;0.70;;
65187;SDS011;51775;51.148;6.950;2022-07-10T07:51:38;1.30;;;0.65;;
65187;SDS011;51775;51.148;6.950;2022-07-10T07:54:03;1.65;;;0.47;;
65187;SDS011;51775;51.148;6.950;2022-07-10T07:56:29;1.10;;;0.80;;
65187;SDS011;51775;51.148;6.950;2022-07-10T07:58:54;0.68;;;0.60;;
65187;SDS011;51775;51.148;6.950;2022-07-10T08:01:19;1.08;;;0.70;;
65187;SDS011;51775;51.148;6.950;2022-07-10T08:03:45;1.15;;;0.70;;
65187;SDS011;51775;51.148;6.950;2022-07-10T08:06:10;1.63;;;0.80;;
65187;SDS011;51775;51.148;6.950;2022-07-10T08:08:35;2.63;;;0.95;;
65187;SDS011;51775;51.148;6.950;2022-07-10T08:11:01;1.90;;;0.80;;
65187;SDS011;51775;51.148;6.950;2022-07-10T08:13:26;2.08;;;0.80;;
65187;SDS011;51775;51.148;6.950;2022-07-10T08:15:51;1.60;;;0.90;;
65187;SDS011;51775;51.148;6.950;2022-07-10T08:18:17;1.90;;;0.80;;
65187;SDS011;51775;51.148;6.950;2022-07-10T08:20:42;1.73;;;0.80;;
65187;SDS011;51775;51.148;6.950;2022-07-10T08:23:07;1.58;;;0.80;;
65187;SDS011;51775;51.148;6.950;2022-07-10T08:25:32;1.45;;;0.82;;
65187;SDS011;51775;51.148;6.950;2022-07-10T08:28:01;1.50;;;0.93;;
65187;SDS011;51775;51.148;6.950;2022-07-10T08:30:27;2.22;;;0.77;;
65187;SDS011;51775;51.148;6.950;2022-07-10T08:32:52;1.50;;;0.70;;
65187;SDS011;51775;51.148;6.950;2022-07-10T08:35:18;1.05;;;0.80;;
65187;SDS011;51775;51.148;6.950;2022-07-10T08:37:43;1.33;;;0.95;;
65187;SDS011;51775;51.148;6.950;2022-07-10T08:40:10;1.50;;;0.80;;
65187;SDS011;51775;51.148;6.950;2022-07-10T08:42:41;1.00;;;0.80;;
65187;SDS011;51775;51.148;6.950;2022-07-10T08:45:08;2.15;;;0.90;;
65187;SDS011;51775;51.148;6.950;2022-07-10T08:47:34;1.23;;;0.70;;
65187;SDS011;51775;51.148;6.950;2022-07-10T08:50:01;1.80;;;0.80;;
65187;SDS011;51775;51.148;6.950;2022-07-10T08:52:29;1.20;;;0.70;;
65187;SDS011;51775;51.148;6.950;2022-07-10T08:55:02;1.63;;;0.80;;
65187;SDS011;51775;51.148;6.950;2022-07-10T08:57:29;1.80;;;0.90;;
65187;SDS011;51775;51.148;6.950;2022-07-10T08:59:55;1.35;;;0.90;;
65187;SDS011;51775;51.148;6.950;2022-07-10T09:02:20;2.03;;;0.90;;
65187;SDS011;51775;51.148;6.950;2022-07-10T09:04:45;1.27;;;0.90;;
65187;SDS011;51775;51.148;6.950;2022-07-10T09:07:11;1.55;;;0.95;;
65187;SDS011;51775;51.148;6.950;2022-07-10T09:09:52;1.30;;;0.90;;
65187;SDS011;51775;51.148;6.950;2022-07-10T09:12:22;1.48;;;1.00;;
65187;SDS011;51775;51.148;6.950;2022-07-10T09:14:48;1.75;;;0.90;;
65187;SDS011;51775;51.148;6.950;2022-07-10T09:17:13;1.33;;;0.90;;
65187;SDS011;51775;51.148;6.950;2022-07-10T09:19:39;1.48;;;0.90;;
65187;SDS011;51775;51.148;6.950;2022-07-10T09:22:08;1.00;;;0.90;;
65187;SDS011;51775;51.148;6.950;2022-07-10T09:24:41;1.73;;;1.10;;
65187;SDS011;51775;51.148;6.950;2022-07-10T09:27:07;2.05;;;1.10;;
65187;SDS011;51775;51.148;6.950;2022-07-10T09:29:47;2.05;;;1.00;;
65187;SDS011;51775;51.148;6.950;2022-07-10T09:32:14;5.55;;;1.20;;
65187;SDS011;51775;51.148;6.950;2022-07-10T09:34:41;1.83;;;1.20;;
65187;SDS011;51775;51.148;6.950;2022-07-10T09:37:29;2.80;;;1.40;;
65187;SDS011;51775;51.148;6.950;2022-07-10T09:47:36;3.53;;;2.05;;
65187;SDS011;51775;51.148;6.950;2022-07-10T09:50:02;2.72;;;2.00;;
65187;SDS011;51775;51.148;6.950;2022-07-10T09:52:28;4.10;;;2.10;;
65187;SDS011;51775;51.148;6.950;2022-07-10T09:54:54;3.55;;;2.10;;
65187;SDS011;51775;51.148;6.950;2022-07-10T09:57:20;8.05;;;1.92;;
65187;SDS011;51775;51.148;6.950;2022-07-10T09:59:51;5.63;;;1.98;;
65187;SDS011;51775;51.148;6.950;2022-07-10T10:02:24;3.17;;;1.90;;
65187;SDS011;51775;51.148;6.950;2022-07-10T10:04:50;2.67;;;1.85;;
65187;SDS011;51775;51.148;6.950;2022-07-10T10:07:17;4.32;;;1.95;;
65187;SDS011;51775;51.148;6.950;2022-07-10T10:09:50;2.65;;;2.00;;
65187;SDS011;51775;51.148;6.950;2022-07-10T10:12:17;3.58;;;2.22;;
65187;SDS011;51775;51.148;6.950;2022-07-10T10:14:51;5.15;;;2.20;;
65187;SDS011;51775;51.148;6.950;2022-07-10T10:17:17;3.25;;;2.03;;
65187;SDS011;51775;51.148;6.950;2022-07-10T10:19:47;5.00;;;2.00;;
65187;SDS011;51775;51.148;6.950;2022-07-10T10:22:15;3.60;;;1.77;;
65187;SDS011;51775;51.148;6.950;2022-07-10T10:24:43;5.10;;;2.00;;
65187;SDS011;51775;51.148;6.950;2022-07-10T10:27:08;6.65;;;2.03;;
65187;SDS011;51775;51.148;6.950;2022-07-10T10:29:36;4.18;;;1.80;;
65187;SDS011;51775;51.148;6.950;2022-07-10T10:32:02;6.05;;;1.77;;
65187;SDS011;51775;51.148;6.950;2022-07-10T10:34:38;6.65;;;1.70;;
65187;SDS011;51775;51.148;6.950;2022-07-10T10:37:05;4.28;;;1.70;;
65187;SDS011;51775;51.148;6.950;2022-07-10T10:39:30;2.65;;;1.60;;
65187;SDS011;51775;51.148;6.950;2022-07-10T10:41:56;2.95;;;1.60;;
65187;SDS011;51775;51.148;6.950;2022-07-10T10:44:24;2.47;;;1.73;;
65187;SDS011;51775;51.148;6.950;2022-07-10T10:49:15;5.40;;;1.53;;
65187;SDS011;51775;51.148;6.950;2022-07-10T10:54:26;2.38;;;1.50;;
65187;SDS011;51775;51.148;6.950;2022-07-10T10:57:11;1.92;;;1.40;;
65187;SDS011;51775;51.148;6.950;2022-07-10T10:59:46;2.13;;;1.50;;
65187;SDS011;51775;51.148;6.950;2022-07-10T11:02:35;1.95;;;1.30;;
65187;SDS011;51775;51.148;6.950;2022-07-10T11:05:47;3.20;;;1.40;;
65187;SDS011;51775;51.148;6.950;2022-07-10T11:10:36;5.50;;;1.60;;
65187;SDS011;51775;51.148;6.950;2022-07-10T11:15:46;2.05;;;1.27;;
65187;SDS011;51775;51.148;6.950;2022-07-10T11:18:13;2.72;;;1.30;;
65187;SDS011;51775;51.148;6.950;2022-07-10T11:20:46;2.72;;;1.20;;
65187;SDS011;51775;51.148;6.950;2022-07-10T11:23:17;1.77;;;1.15;;
65187;SDS011;51775;51.148;6.950;2022-07-10T11:26:10;1.73;;;1.10;;
65187;SDS011;51775;51.148;6.950;2022-07-10T11:31:16;2.45;;;1.20;;
65187;SDS011;51775;51.148;6.950;2022-07-10T11:33:48;5.72;;;1.60;;
65187;SDS011;51775;51.148;6.950;2022-07-10T11:36:15;2.88;;;1.30;;
65187;SDS011;51775;51.148;6.950;2022-07-10T11:38:43;2.75;;;1.20;;
65187;SDS011;51775;51.148;6.950;2022-07-10T11:41:27;1.90;;;1.13;;
65187;SDS011;51775;51.148;6.950;2022-07-10T11:43:54;1.63;;;1.00;;
65187;SDS011;51775;51.148;6.950;2022-07-10T11:46:21;2.90;;;1.10;;
65187;SDS011;51775;51.148;6.950;2022-07-10T11:48:48;3.05;;;1.10;;
65187;SDS011;51775;51.148;6.950;2022-07-10T11:53:59;1.67;;;1.05;;
65187;SDS011;51775;51.148;6.950;2022-07-10T11:56:33;2.80;;;1.00;;
65187;SDS011;51775;51.148;6.950;2022-07-10T11:59:04;2.28;;;0.90;;
65187;SDS011;51775;51.148;6.950;2022-07-10T12:01:32;2.10;;;0.95;;
65187;SDS011;51775;51.148;6.950;2022-07-10T12:04:00;1.92;;;0.90;;
65187;SDS011;51775;51.148;6.950;2022-07-10T12:06:27;1.25;;;0.90;;
65187;SDS011;51775;51.148;6.950;2022-07-10T12:08:55;1.20;;;0.80;;
65187;SDS011;51775;51.148;6.950;2022-07-10T12:11:21;3.22;;;0.90;;
65187;SDS011;51775;51.148;6.950;2022-07-10T12:13:49;1.63;;;0.85;;
65187;SDS011;51775;51.148;6.950;2022-07-10T12:16:16;1.77;;;1.00;;
65187;SDS011;51775;51.148;6.950;2022-07-10T12:18:41;1.13;;;0.90;;
65187;SDS011;51775;51.148;6.950;2022-07-10T12:21:08;1.58;;;0.85;;
65187;SDS011;51775;51.148;6.950;2022-07-10T12:23:34;2.70;;;0.85;;
65187;SDS011;51775;51.148;6.950;2022-07-10T12:26:00;1.33;;;0.80;;
65187;SDS011;51775;51.148;6.950;2022-07-10T12:28:25;0.95;;;0.82;;
65187;SDS011;51775;51.148;6.950;2022-07-10T12:30:51;1.48;;;0.90;;
65187;SDS011;51775;51.148;6.950;2022-07-10T12:33:18;2.17;;;0.90;;
65187;SDS011;51775;51.148;6.950;2022-07-10T12:38:30;3.08;;;1.00;;
65187;SDS011;51775;51.148;6.950;2022-07-10T12:41:13;1.00;;;0.70;;
65187;SDS011;51775;51.148;6.950;2022-07-10T12:43:39;3.05;;;1.08;;
65187;SDS011;51775;51.148;6.950;2022-07-10T12:46:15;1.30;;;0.77;;
65187;SDS011;51775;51.148;6.950;2022-07-10T12:51:48;3.30;;;0.90;;
65187;SDS011;51775;51.148;6.950;2022-07-10T12:54:32;2.55;;;0.80;;
65187;SDS011;51775;51.148;6.950;2022-07-10T12:56:59;6.43;;;1.20;;
65187;SDS011;51775;51.148;6.950;2022-07-10T12:59:24;4.07;;;0.90;;
65187;SDS011;51775;51.148;6.950;2022-07-10T13:01:52;2.65;;;0.90;;
65187;SDS011;51775;51.148;6.950;2022-07-10T13:04:24;3.08;;;0.90;;
65187;SDS011;51775;51.148;6.950;2022-07-10T13:06:50;2.20;;;0.90;;
65187;SDS011;51775;51.148;6.950;2022-07-10T13:11:49;1.15;;;0.80;;
65187;SDS011;51775;51.148;6.950;2022-07-10T13:14:15;2.10;;;0.90;;
65187;SDS011;51775;51.148;6.950;2022-07-10T13:16:41;11.00;;;0.90;;
65187;SDS011;51775;51.148;6.950;2022-07-10T13:19:06;2.78;;;0.85;;
65187;SDS011;51775;51.148;6.950;2022-07-10T13:21:32;0.90;;;0.80;;
65187;SDS011;51775;51.148;6.950;2022-07-10T13:23:57;3.05;;;0.73;;
65187;SDS011;51775;51.148;6.950;2022-07-10T13:26:23;0.75;;;0.70;;
65187;SDS011;51775;51.148;6.950;2022-07-10T13:28:49;3.75;;;0.80;;
65187;SDS011;51775;51.148;6.950;2022-07-10T13:31:14;1.92;;;0.80;;
65187;SDS011;51775;51.148;6.950;2022-07-10T13:33:39;0.77;;;0.70;;
65187;SDS011;51775;51.148;6.950;2022-07-10T13:36:04;1.40;;;0.70;;
65187;SDS011;51775;51.148;6.950;2022-07-10T13:38:30;2.08;;;0.80;;
65187;SDS011;51775;51.148;6.950;2022-07-10T13:40:55;1.88;;;0.85;;
65187;SDS011;51775;51.148;6.950;2022-07-10T13:43:21;1.38;;;0.88;;
65187;SDS011;51775;51.148;6.950;2022-07-10T13:45:50;1.05;;;0.70;;
65187;SDS011;51775;51.148;6.950;2022-07-10T13:48:15;2.03;;;0.95;;
65187;SDS011;51775;51.148;6.950;2022-07-10T13:50:41;1.75;;;0.90;;
65187;SDS011;51775;51.148;6.950;2022-07-10T13:53:07;2.88;;;0.80;;
65187;SDS011;51775;51.148;6.950;2022-07-10T13:55:33;2.00;;;0.75;;
65187;SDS011;51775;51.148;6.950;2022-07-10T13:57:58;1.17;;;0.75;;
65187;SDS011;51775;51.148;6.950;2022-07-10T14:00:24;1.58;;;0.88;;
65187;SDS011;51775;51.148;6.950;2022-07-10T14:02:49;4.13;;;0.90;;
65187;SDS011;51775;51.148;6.950;2022-07-10T14:05:14;1.55;;;0.80;;
65187;SDS011;51775;51.148;6.950;2022-07-10T14:07:40;1.58;;;0.88;;
65187;SDS011;51775;51.148;6.950;2022-07-10T14:10:05;1.10;;;0.80;;
65187;SDS011;51775;51.148;6.950;2022-07-10T14:12:31;1.38;;;0.80;;
65187;SDS011;51775;51.148;6.950;2022-07-10T14:14:57;1.52;;;0.80;;
65187;SDS011;51775;51.148;6.950;2022-07-10T14:17:22;2.72;;;0.80;;
65187;SDS011;51775;51.148;6.950;2022-07-10T14:19:48;3.00;;;0.90;;
65187;SDS011;51775;51.148;6.950;2022-07-10T14:22:13;1.25;;;0.90;;
65187;SDS011;51775;51.148;6.950;2022-07-10T14:24:38;1.42;;;0.70;;
65187;SDS011;51775;51.148;6.950;2022-07-10T14:27:04;1.08;;;0.65;;
65187;SDS011;51775;51.148;6.950;2022-07-10T14:29:30;1.67;;;0.70;;
65187;SDS011;51775;51.148;6.950;2022-07-10T14:31:56;1.83;;;0.70;;
65187;SDS011;51775;51.148;6.950;2022-07-10T14:34:21;1.00;;;0.80;;
65187;SDS011;51775;51.148;6.950;2022-07-10T14:36:46;0.90;;;0.70;;
65187;SDS011;51775;51.148;6.950;2022-07-10T14:39:11;1.55;;;0.82;;
65187;SDS011;51775;51.148;6.950;2022-07-10T14:41:37;1.75;;;0.70;;
65187;SDS011;51775;51.148;6.950;2022-07-10T14:44:03;1.98;;;0.80;;
65187;SDS011;51775;51.148;6.950;2022-07-10T14:46:29;1.38;;;0.68;;
65187;SDS011;51775;51.148;6.950;2022-07-10T14:48:54;0.82;;;0.77;;
65187;SDS011;51775;51.148;6.950;2022-07-10T14:51:19;1.05;;;0.70;;
65187;SDS011;51775;51.148;6.950;2022-07-10T14:53:44;1.63;;;0.85;;
65187;SDS011;51775;51.148;6.950;2022-07-10T14:56:10;0.85;;;0.75;;
65187;SDS011;51775;51.148;6.950;2022-07-10T14:58:36;1.60;;;0.82;;
65187;SDS011;51775;51.148;6.950;2022-07-10T15:01:01;0.80;;;0.60;;
65187;SDS011;51775;51.148;6.950;2022-07-10T15:03:26;3.35;;;0.80;;
65187;SDS011;51775;51.148;6.950;2022-07-10T15:05:52;2.70;;;0.70;;
65187;SDS011;51775;51.148;6.950;2022-07-10T15:08:18;1.17;;;0.80;;
65187;SDS011;51775;51.148;6.950;2022-07-10T15:10:46;2.10;;;0.88;;
65187;SDS011;51775;51.148;6.950;2022-07-10T15:13:11;1.30;;;0.80;;
65187;SDS011;51775;51.148;6.950;2022-07-10T15:15:37;1.00;;;0.90;;
65187;SDS011;51775;51.148;6.950;2022-07-10T15:18:02;1.90;;;1.00;;